sensor_id;sensor_type;location;lat;lon;timestamp;pressure;altitude;pressure_sealevel;temperature;humidity
19590;BME280;12231;42.782;23.388;2023-04-07T00:00:21;63319.84;;;2.31;95.15
19590;BME280;12231;42.782;23.388;2023-04-07T00:02:47;63317.06;;;2.29;95.28
19590;BME280;12231;42.782;23.388;2023-04-07T00:05:13;63313.97;;;2.26;95.70
19590;BME280;12231;42.782;23.388;2023-04-07T00:07:39;63310.59;;;2.23;96.03
19590;BME280;12231;42.782;23.388;2023-04-07T00:10:05;63307.84;;;2.20;96.10
19590;BME280;12231;42.782;23.388;2023-04-07T00:12:31;63304.94;;;2.17;96.34
19590;BME280;12231;42.782;23.388;2023-04-07T00:14:56;63301.97;;;2.15;96.55
19590;BME280;12231;42.782;23.388;2023-04-07T00:17:21;63299.16;;;2.12;96.72
19590;BME280;12231;42.782;23.388;2023-04-07T00:19:47;63296.78;;;2.10;96.71
19590;BME280;12231;42.782;23.388;2023-04-07T00:22:12;63293.56;;;2.07;96.95
19590;BME280;12231;42.782;23.388;2023-04-07T00:24:38;63291.19;;;2.05;96.75
19590;BME280;12231;42.782;23.388;2023-04-07T00:27:03;63289.13;;;2.03;96.47
19590;BME280;12231;42.782;23.388;2023-04-07T00:29:28;63286.00;;;2.00;97.08
19590;BME280;12231;42.782;23.388;2023-04-07T00:31:54;63283.50;;;1.98;97.39
19590;BME280;12231;42.782;23.388;2023-04-07T00:34:20;63280.84;;;1.96;97.68
19590;BME280;12231;42.782;23.388;2023-04-07T00:36:45;63277.63;;;1.93;97.70
19590;BME280;12231;42.782;23.388;2023-04-07T00:39:16;63274.84;;;1.90;97.68
19590;BME280;12231;42.782;23.388;2023-04-07T00:41:42;63271.88;;;1.88;97.78
19590;BME280;12231;42.782;23.388;2023-04-07T00:44:07;63269.09;;;1.85;98.29
19590;BME280;12231;42.782;23.388;2023-04-07T00:46:32;63266.16;;;1.82;98.65
19590;BME280;12231;42.782;23.388;2023-04-07T00:48:58;63263.38;;;1.80;98.83
19590;BME280;12231;42.782;23.388;2023-04-07T00:51:25;63260.41;;;1.77;99.04
19590;BME280;12231;42.782;23.388;2023-04-07T00:53:51;63257.47;;;1.75;99.42
19590;BME280;12231;42.782;23.388;2023-04-07T00:56:16;63254.41;;;1.72;99.84
19590;BME280;12231;42.782;23.388;2023-04-07T00:58:42;63251.75;;;1.69;99.95
19590;BME280;12231;42.782;23.388;2023-04-07T01:01:12;63248.84;;;1.67;100.00
19590;BME280;12231;42.782;23.388;2023-04-07T01:03:51;63245.63;;;1.64;100.00
19590;BME280;12231;42.782;23.388;2023-04-07T01:06:20;63242.59;;;1.61;100.00
19590;BME280;12231;42.782;23.388;2023-04-07T01:13:58;63237.00;;;1.56;100.00
19590;BME280;12231;42.782;23.388;2023-04-07T01:16:34;63236.47;;;1.55;100.00
19590;BME280;12231;42.782;23.388;2023-04-07T01:21:39;63237.81;;;1.56;100.00
19590;BME280;12231;42.782;23.388;2023-04-07T01:24:26;63239.34;;;1.58;100.00
19590;BME280;12231;42.782;23.388;2023-04-07T01:27:35;63240.22;;;1.58;100.00
19590;BME280;12231;42.782;23.388;2023-04-07T01:29:49;63240.22;;;1.58;100.00
19590;BME280;12231;42.782;23.388;2023-04-07T01:32:17;63238.84;;;1.57;100.00
19590;BME280;12231;42.782;23.388;2023-04-07T01:34:46;63235.88;;;1.55;100.00
19590;BME280;12231;42.782;23.388;2023-04-07T01:37:13;63233.97;;;1.53;100.00
19590;BME280;12231;42.782;23.388;2023-04-07T01:39:40;63231.84;;;1.51;100.00
19590;BME280;12231;42.782;23.388;2023-04-07T01:42:06;63229.47;;;1.49;100.00
19590;BME280;12231;42.782;23.388;2023-04-07T01:44:32;63227.50;;;1.47;100.00
19590;BME280;12231;42.782;23.388;2023-04-07T01:46:58;63225.47;;;1.45;100.00
19590;BME280;12231;42.782;23.388;2023-04-07T01:49:25;63222.38;;;1.42;100.00
19590;BME280;12231;42.782;23.388;2023-04-07T01:51:52;63219.19;;;1.39;100.00
19590;BME280;12231;42.782;23.388;2023-04-07T01:54:18;63215.84;;;1.36;100.00
19590;BME280;12231;42.782;23.388;2023-04-07T01:56:44;63212.63;;;1.33;100.00
19590;BME280;12231;42.782;23.388;2023-04-07T01:59:10;63209.13;;;1.30;100.00
19590;BME280;12231;42.782;23.388;2023-04-07T02:01:35;63204.91;;;1.26;100.00
19590;BME280;12231;42.782;23.388;2023-04-07T02:06:34;63194.19;;;1.16;100.00
19590;BME280;12231;42.782;23.388;2023-04-07T02:09:05;63188.63;;;1.11;100.00
19590;BME280;12231;42.782;23.388;2023-04-07T02:11:33;63184.19;;;1.06;100.00
19590;BME280;12231;42.782;23.388;2023-04-07T02:14:01;63178.44;;;1.01;100.00
19590;BME280;12231;42.782;23.388;2023-04-07T02:16:29;63172.88;;;0.96;100.00
19590;BME280;12231;42.782;23.388;2023-04-07T02:18:56;63167.03;;;0.91;100.00
19590;BME280;12231;42.782;23.388;2023-04-07T02:21:23;63162.09;;;0.87;100.00
19590;BME280;12231;42.782;23.388;2023-04-07T02:23:50;63158.59;;;0.84;100.00
19590;BME280;12231;42.782;23.388;2023-04-07T02:26:15;63155.22;;;0.81;100.00
19590;BME280;12231;42.782;23.388;2023-04-07T02:28:41;63152.03;;;0.78;100.00
19590;BME280;12231;42.782;23.388;2023-04-07T02:31:06;63149.66;;;0.75;100.00
19590;BME280;12231;42.782;23.388;2023-04-07T02:33:32;63147.44;;;0.73;100.00
19590;BME280;12231;42.782;23.388;2023-04-07T02:35:57;63146.19;;;0.72;100.00
19590;BME280;12231;42.782;23.388;2023-04-07T02:38:22;63144.41;;;0.70;100.00
19590;BME280;12231;42.782;23.388;2023-04-07T02:40:48;63143.25;;;0.69;100.00
19590;BME280;12231;42.782;23.388;2023-04-07T02:43:13;63142.81;;;0.69;100.00
19590;BME280;12231;42.782;23.388;2023-04-07T02:45:39;63141.97;;;0.68;100.00
19590;BME280;12231;42.782;23.388;2023-04-07T02:48:04;63140.69;;;0.67;100.00
19590;BME280;12231;42.782;23.388;2023-04-07T02:50:30;63140.13;;;0.67;100.00
19590;BME280;12231;42.782;23.388;2023-04-07T02:52:55;63138.91;;;0.66;100.00
19590;BME280;12231;42.782;23.388;2023-04-07T02:55:21;63139.19;;;0.66;100.00
19590;BME280;12231;42.782;23.388;2023-04-07T02:57:46;63138.75;;;0.66;100.00
19590;BME280;12231;42.782;23.388;2023-04-07T03:00:13;63138.47;;;0.65;100.00
19590;BME280;12231;42.782;23.388;2023-04-07T03:02:38;63137.94;;;0.65;100.00
19590;BME280;12231;42.782;23.388;2023-04-07T03:05:04;63137.38;;;0.64;100.00
19590;BME280;12231;42.782;23.388;2023-04-07T03:07:30;63137.22;;;0.64;100.00
19590;BME280;12231;42.782;23.388;2023-04-07T03:09:56;63137.78;;;0.65;100.00
19590;BME280;12231;42.782;23.388;2023-04-07T03:12:21;63138.38;;;0.65;100.00
19590;BME280;12231;42.782;23.388;2023-04-07T03:14:47;63138.63;;;0.65;100.00
19590;BME280;12231;42.782;23.388;2023-04-07T03:17:12;63138.53;;;0.65;100.00
19590;BME280;12231;42.782;23.388;2023-04-07T03:19:38;63137.13;;;0.64;100.00
19590;BME280;12231;42.782;23.388;2023-04-07T03:22:03;63136.69;;;0.63;100.00
19590;BME280;12231;42.782;23.388;2023-04-07T03:24:28;63136.09;;;0.63;100.00
19590;BME280;12231;42.782;23.388;2023-04-07T03:26:54;63135.25;;;0.62;100.00
19590;BME280;12231;42.782;23.388;2023-04-07T03:29:20;63134.44;;;0.62;100.00
19590;BME280;12231;42.782;23.388;2023-04-07T03:31:45;63134.19;;;0.61;100.00
19590;BME280;12231;42.782;23.388;2023-04-07T03:34:11;63133.16;;;0.61;100.00
19590;BME280;12231;42.782;23.388;2023-04-07T03:36:36;63132.84;;;0.60;100.00
19590;BME280;12231;42.782;23.388;2023-04-07T03:39:02;63131.41;;;0.60;100.00
19590;BME280;12231;42.782;23.388;2023-04-07T03:41:27;63131.13;;;0.59;100.00
19590;BME280;12231;42.782;23.388;2023-04-07T03:43:53;63132.00;;;0.60;100.00
19590;BME280;12231;42.782;23.388;2023-04-07T03:46:19;63132.84;;;0.60;100.00
19590;BME280;12231;42.782;23.388;2023-04-07T03:48:45;63137.47;;;0.65;100.00
19590;BME280;12231;42.782;23.388;2023-04-07T03:51:11;63142.34;;;0.69;100.00
19590;BME280;12231;42.782;23.388;2023-04-07T03:53:37;63146.81;;;0.73;100.00
19590;BME280;12231;42.782;23.388;2023-04-07T03:56:02;63150.72;;;0.77;100.00
19590;BME280;12231;42.782;23.388;2023-04-07T03:58:28;63154.19;;;0.80;100.00
19590;BME280;12231;42.782;23.388;2023-04-07T04:00:53;63157.69;;;0.83;100.00
19590;BME280;12231;42.782;23.388;2023-04-07T04:03:19;63160.72;;;0.86;100.00
19590;BME280;12231;42.782;23.388;2023-04-07T04:05:44;63163.78;;;0.89;100.00
19590;BME280;12231;42.782;23.388;2023-04-07T04:08:10;63166.69;;;0.92;100.00
19590;BME280;12231;42.782;23.388;2023-04-07T04:10:35;63169.91;;;0.95;100.00
19590;BME280;12231;42.782;23.388;2023-04-07T04:13:01;63172.81;;;0.98;100.00
19590;BME280;12231;42.782;23.388;2023-04-07T04:15:28;63175.63;;;1.00;100.00
19590;BME280;12231;42.782;23.388;2023-04-07T04:17:54;63177.84;;;1.02;100.00
19590;BME280;12231;42.782;23.388;2023-04-07T04:20:19;63178.25;;;1.03;100.00
19590;BME280;12231;42.782;23.388;2023-04-07T04:22:46;63179.94;;;1.04;100.00
19590;BME280;12231;42.782;23.388;2023-04-07T04:25:11;63182.59;;;1.07;100.00
19590;BME280;12231;42.782;23.388;2023-04-07T04:27:37;63185.75;;;1.10;100.00
19590;BME280;12231;42.782;23.388;2023-04-07T04:30:02;63188.22;;;1.12;100.00
19590;BME280;12231;42.782;23.388;2023-04-07T04:32:28;63191.47;;;1.15;100.00
19590;BME280;12231;42.782;23.388;2023-04-07T04:34:53;63195.09;;;1.19;100.00
19590;BME280;12231;42.782;23.388;2023-04-07T04:37:19;63198.44;;;1.22;100.00
19590;BME280;12231;42.782;23.388;2023-04-07T04:39:45;63201.50;;;1.24;100.00
19590;BME280;12231;42.782;23.388;2023-04-07T04:42:10;63204.31;;;1.27;100.00
19590;BME280;12231;42.782;23.388;2023-04-07T04:44:36;63208.09;;;1.30;100.00
19590;BME280;12231;42.782;23.388;2023-04-07T04:47:01;63210.31;;;1.32;99.28
19590;BME280;12231;42.782;23.388;2023-04-07T04:49:27;63211.81;;;1.34;99.58
19590;BME280;12231;42.782;23.388;2023-04-07T04:51:52;63212.34;;;1.35;100.00
19590;BME280;12231;42.782;23.388;2023-04-07T04:54:18;63214.31;;;1.36;100.00
19590;BME280;12231;42.782;23.388;2023-04-07T04:56:44;63216.09;;;1.38;100.00
19590;BME280;12231;42.782;23.388;2023-04-07T04:59:09;63219.50;;;1.41;100.00
19590;BME280;12231;42.782;23.388;2023-04-07T05:01:35;63222.13;;;1.43;100.00
19590;BME280;12231;42.782;23.388;2023-04-07T05:04:00;63224.50;;;1.46;100.00
19590;BME280;12231;42.782;23.388;2023-04-07T05:06:26;63224.34;;;1.46;100.00
19590;BME280;12231;42.782;23.388;2023-04-07T05:08:52;63226.31;;;1.48;100.00
19590;BME280;12231;42.782;23.388;2023-04-07T05:11:17;63229.38;;;1.50;100.00
19590;BME280;12231;42.782;23.388;2023-04-07T05:13:43;63233.44;;;1.54;99.96
19590;BME280;12231;42.782;23.388;2023-04-07T05:16:08;63235.69;;;1.56;99.49
19590;BME280;12231;42.782;23.388;2023-04-07T05:18:33;63238.31;;;1.59;99.59
19590;BME280;12231;42.782;23.388;2023-04-07T05:20:59;63242.81;;;1.62;98.91
19590;BME280;12231;42.782;23.388;2023-04-07T05:23:26;63246.75;;;1.66;98.78
19590;BME280;12231;42.782;23.388;2023-04-07T05:25:51;63250.53;;;1.69;98.60
19590;BME280;12231;42.782;23.388;2023-04-07T05:28:17;63254.00;;;1.72;97.75
19590;BME280;12231;42.782;23.388;2023-04-07T05:30:43;63258.78;;;1.77;97.93
19590;BME280;12231;42.782;23.388;2023-04-07T05:33:08;63263.06;;;1.81;97.49
19590;BME280;12231;42.782;23.388;2023-04-07T05:35:34;63267.22;;;1.85;97.16
19590;BME280;12231;42.782;23.388;2023-04-07T05:37:59;63272.88;;;1.90;96.73
19590;BME280;12231;42.782;23.388;2023-04-07T05:40:24;63278.28;;;1.95;96.28
19590;BME280;12231;42.782;23.388;2023-04-07T05:42:50;63285.81;;;2.02;95.46
19590;BME280;12231;42.782;23.388;2023-04-07T05:45:15;63293.59;;;2.09;94.04
19590;BME280;12231;42.782;23.388;2023-04-07T05:47:41;63300.88;;;2.16;92.96
19590;BME280;12231;42.782;23.388;2023-04-07T05:50:06;63306.72;;;2.21;94.78
19590;BME280;12231;42.782;23.388;2023-04-07T05:52:32;63314.41;;;2.28;95.48
19590;BME280;12231;42.782;23.388;2023-04-07T05:54:57;63322.75;;;2.36;93.83
19590;BME280;12231;42.782;23.388;2023-04-07T05:57:23;63332.25;;;2.45;92.68
19590;BME280;12231;42.782;23.388;2023-04-07T05:59:48;63342.34;;;2.54;91.89
19590;BME280;12231;42.782;23.388;2023-04-07T06:02:14;63353.25;;;2.64;89.88
19590;BME280;12231;42.782;23.388;2023-04-07T06:04:39;63363.88;;;2.74;88.93
19590;BME280;12231;42.782;23.388;2023-04-07T06:07:06;63373.69;;;2.83;88.40
19590;BME280;12231;42.782;23.388;2023-04-07T06:09:31;63382.19;;;2.91;86.69
19590;BME280;12231;42.782;23.388;2023-04-07T06:11:57;63391.31;;;2.99;87.04
19590;BME280;12231;42.782;23.388;2023-04-07T06:14:23;63399.97;;;3.07;86.69
19590;BME280;12231;42.782;23.388;2023-04-07T06:16:49;63406.53;;;3.13;87.47
19590;BME280;12231;42.782;23.388;2023-04-07T06:19:15;63415.81;;;3.21;87.79
19590;BME280;12231;42.782;23.388;2023-04-07T06:21:40;63421.94;;;3.26;88.13
19590;BME280;12231;42.782;23.388;2023-04-07T06:24:06;63431.38;;;3.35;88.05
19590;BME280;12231;42.782;23.388;2023-04-07T06:26:31;63442.84;;;3.45;86.92
19590;BME280;12231;42.782;23.388;2023-04-07T06:28:57;63454.31;;;3.56;85.93
19590;BME280;12231;42.782;23.388;2023-04-07T06:31:24;63468.00;;;3.68;86.47
19590;BME280;12231;42.782;23.388;2023-04-07T06:33:50;63489.97;;;3.88;82.62
19590;BME280;12231;42.782;23.388;2023-04-07T06:36:15;63515.56;;;4.12;77.70
19590;BME280;12231;42.782;23.388;2023-04-07T06:38:41;63542.84;;;4.37;75.99
19590;BME280;12231;42.782;23.388;2023-04-07T06:41:07;63574.91;;;4.66;71.95
19590;BME280;12231;42.782;23.388;2023-04-07T06:43:36;63603.66;;;4.93;69.34
19590;BME280;12231;42.782;23.388;2023-04-07T06:46:01;63636.16;;;5.22;69.35
19590;BME280;12231;42.782;23.388;2023-04-07T06:48:26;63670.34;;;5.53;65.18
19590;BME280;12231;42.782;23.388;2023-04-07T06:50:52;63699.38;;;5.80;64.58
19590;BME280;12231;42.782;23.388;2023-04-07T06:53:17;63728.88;;;6.07;62.98
19590;BME280;12231;42.782;23.388;2023-04-07T06:55:43;63756.81;;;6.32;63.11
19590;BME280;12231;42.782;23.388;2023-04-07T06:58:08;63789.66;;;6.62;60.92
19590;BME280;12231;42.782;23.388;2023-04-07T07:00:34;63817.47;;;6.87;57.14
19590;BME280;12231;42.782;23.388;2023-04-07T07:03:00;63853.44;;;7.20;57.50
19590;BME280;12231;42.782;23.388;2023-04-07T07:05:26;63900.38;;;7.62;52.49
19590;BME280;12231;42.782;23.388;2023-04-07T07:07:51;63948.75;;;8.06;46.32
19590;BME280;12231;42.782;23.388;2023-04-07T07:10:16;63999.53;;;8.53;47.61
19590;BME280;12231;42.782;23.388;2023-04-07T07:12:42;64059.28;;;9.06;42.99
19590;BME280;12231;42.782;23.388;2023-04-07T07:15:07;64125.16;;;9.66;40.14
19590;BME280;12231;42.782;23.388;2023-04-07T07:17:33;64192.56;;;10.27;37.45
19590;BME280;12231;42.782;23.388;2023-04-07T07:19:59;64249.69;;;10.79;37.46
19590;BME280;12231;42.782;23.388;2023-04-07T07:22:24;64302.75;;;11.27;36.78
19590;BME280;12231;42.782;23.388;2023-04-07T07:24:50;64354.63;;;11.73;36.87
19590;BME280;12231;42.782;23.388;2023-04-07T07:27:15;64402.91;;;12.17;35.96
19590;BME280;12231;42.782;23.388;2023-04-07T07:29:41;64446.00;;;12.56;37.37
19590;BME280;12231;42.782;23.388;2023-04-07T07:32:06;64471.44;;;12.79;40.19
19590;BME280;12231;42.782;23.388;2023-04-07T07:34:32;64507.06;;;13.11;38.39
19590;BME280;12231;42.782;23.388;2023-04-07T07:36:57;64537.47;;;13.39;38.05
19590;BME280;12231;42.782;23.388;2023-04-07T07:39:24;64565.75;;;13.64;37.48
19590;BME280;12231;42.782;23.388;2023-04-07T07:41:50;64586.56;;;13.83;39.30
19590;BME280;12231;42.782;23.388;2023-04-07T07:44:15;64603.88;;;13.98;40.26
19590;BME280;12231;42.782;23.388;2023-04-07T07:46:41;64622.69;;;14.15;39.45
19590;BME280;12231;42.782;23.388;2023-04-07T07:49:06;64637.44;;;14.28;39.34
19590;BME280;12231;42.782;23.388;2023-04-07T07:51:31;64643.09;;;14.33;39.60
19590;BME280;12231;42.782;23.388;2023-04-07T07:53:57;64644.13;;;14.34;41.91
19590;BME280;12231;42.782;23.388;2023-04-07T07:56:23;64645.25;;;14.35;40.52
19590;BME280;12231;42.782;23.388;2023-04-07T07:58:49;64638.72;;;14.29;41.76
19590;BME280;12231;42.782;23.388;2023-04-07T08:01:14;64634.75;;;14.26;40.66
19590;BME280;12231;42.782;23.388;2023-04-07T08:03:40;64624.34;;;14.17;43.91
19590;BME280;12231;42.782;23.388;2023-04-07T08:06:05;64613.16;;;14.07;43.51
19590;BME280;12231;42.782;23.388;2023-04-07T08:08:31;64598.28;;;13.94;45.15
19590;BME280;12231;42.782;23.388;2023-04-07T08:10:56;64584.25;;;13.81;43.40
19590;BME280;12231;42.782;23.388;2023-04-07T08:13:22;64567.84;;;13.66;44.60
19590;BME280;12231;42.782;23.388;2023-04-07T08:15:47;64552.16;;;13.52;45.02
19590;BME280;12231;42.782;23.388;2023-04-07T08:18:13;64538.94;;;13.40;44.57
19590;BME280;12231;42.782;23.388;2023-04-07T08:20:38;64520.41;;;13.23;47.03
19590;BME280;12231;42.782;23.388;2023-04-07T08:23:03;64505.47;;;13.09;47.65
19590;BME280;12231;42.782;23.388;2023-04-07T08:25:29;64493.13;;;12.98;45.74
19590;BME280;12231;42.782;23.388;2023-04-07T08:27:55;64480.00;;;12.86;46.41
19590;BME280;12231;42.782;23.388;2023-04-07T08:30:20;64466.56;;;12.74;47.33
19590;BME280;12231;42.782;23.388;2023-04-07T08:32:46;64450.16;;;12.59;48.39
19590;BME280;12231;42.782;23.388;2023-04-07T08:35:12;64440.59;;;12.50;45.68
19590;BME280;12231;42.782;23.388;2023-04-07T08:37:38;64435.75;;;12.46;44.97
19590;BME280;12231;42.782;23.388;2023-04-07T08:40:05;64434.78;;;12.45;43.42
19590;BME280;12231;42.782;23.388;2023-04-07T08:42:33;64433.13;;;12.43;44.24
19590;BME280;12231;42.782;23.388;2023-04-07T08:45:06;64434.69;;;12.44;43.95
19590;BME280;12231;42.782;23.388;2023-04-07T08:47:33;64439.69;;;12.49;42.93
19590;BME280;12231;42.782;23.388;2023-04-07T08:50:01;64438.66;;;12.48;43.05
19590;BME280;12231;42.782;23.388;2023-04-07T08:52:44;64444.03;;;12.53;41.53
19590;BME280;12231;42.782;23.388;2023-04-07T09:10:58;95427.47;;;12.95;40.80
19590;BME280;12231;42.782;23.388;2023-04-07T09:13:24;95431.50;;;11.89;43.20
19590;BME280;12231;42.782;23.388;2023-04-07T09:15:50;95427.31;;;12.49;42.59
19590;BME280;12231;42.782;23.388;2023-04-07T09:18:16;95438.34;;;11.77;43.83
19590;BME280;12231;42.782;23.388;2023-04-07T09:23:30;95437.31;;;11.67;45.09
19590;BME280;12231;42.782;23.388;2023-04-07T09:25:57;95435.69;;;11.40;45.51
19590;BME280;12231;42.782;23.388;2023-04-07T09:28:42;95433.81;;;11.93;43.80
19590;BME280;12231;42.782;23.388;2023-04-07T09:31:07;95435.53;;;11.68;46.55
19590;BME280;12231;42.782;23.388;2023-04-07T09:33:33;95444.50;;;12.74;43.87
19590;BME280;12231;42.782;23.388;2023-04-07T09:36:00;95438.91;;;11.56;45.47
19590;BME280;12231;42.782;23.388;2023-04-07T09:38:36;95437.59;;;12.00;45.21
19590;BME280;12231;42.782;23.388;2023-04-07T09:43:39;95440.50;;;12.08;45.76
19590;BME280;12231;42.782;23.388;2023-04-07T09:46:09;95443.28;;;12.79;44.54
19590;BME280;12231;42.782;23.388;2023-04-07T09:48:35;95443.97;;;12.45;44.84
19590;BME280;12231;42.782;23.388;2023-04-07T09:51:11;95436.91;;;13.43;44.02
19590;BME280;12231;42.782;23.388;2023-04-07T09:56:11;95439.50;;;14.99;39.10
19590;BME280;12231;42.782;23.388;2023-04-07T09:58:38;95436.88;;;15.73;38.29
19590;BME280;12231;42.782;23.388;2023-04-07T10:01:06;95437.03;;;15.40;40.02
19590;BME280;12231;42.782;23.388;2023-04-07T10:03:36;95437.38;;;15.04;38.77
19590;BME280;12231;42.782;23.388;2023-04-07T10:06:03;95442.25;;;13.98;40.93
19590;BME280;12231;42.782;23.388;2023-04-07T10:08:31;95444.03;;;14.64;41.10
19590;BME280;12231;42.782;23.388;2023-04-07T10:10:58;95442.97;;;14.00;41.59
19590;BME280;12231;42.782;23.388;2023-04-07T10:13:26;95444.41;;;13.11;44.55
19590;BME280;12231;42.782;23.388;2023-04-07T10:15:52;95442.28;;;13.74;42.46
19590;BME280;12231;42.782;23.388;2023-04-07T10:18:19;95440.91;;;13.93;42.38
19590;BME280;12231;42.782;23.388;2023-04-07T10:20:47;95437.22;;;14.52;42.06
19590;BME280;12231;42.782;23.388;2023-04-07T10:23:46;95435.34;;;14.54;41.45
19590;BME280;12231;42.782;23.388;2023-04-07T10:26:15;95441.00;;;14.37;41.31
19590;BME280;12231;42.782;23.388;2023-04-07T10:28:45;95446.81;;;13.84;41.18
19590;BME280;12231;42.782;23.388;2023-04-07T10:31:14;95453.44;;;12.70;44.42
19590;BME280;12231;42.782;23.388;2023-04-07T10:33:49;95440.84;;;13.59;43.37
19590;BME280;12231;42.782;23.388;2023-04-07T10:36:16;95436.31;;;13.74;42.07
19590;BME280;12231;42.782;23.388;2023-04-07T10:41:40;95442.09;;;13.89;42.43
19590;BME280;12231;42.782;23.388;2023-04-07T10:44:08;95443.84;;;13.77;42.89
19590;BME280;12231;42.782;23.388;2023-04-07T10:49:13;95442.31;;;13.86;42.54
19590;BME280;12231;42.782;23.388;2023-04-07T10:51:39;95444.28;;;14.83;43.75
19590;BME280;12231;42.782;23.388;2023-04-07T10:54:18;95440.53;;;14.32;41.90
19590;BME280;12231;42.782;23.388;2023-04-07T10:59:34;95438.81;;;13.52;42.88
19590;BME280;12231;42.782;23.388;2023-04-07T11:04:45;95448.34;;;13.17;43.64
19590;BME280;12231;42.782;23.388;2023-04-07T11:07:12;95445.69;;;12.93;55.43
19590;BME280;12231;42.782;23.388;2023-04-07T11:09:39;95443.16;;;13.51;44.37
19590;BME280;12231;42.782;23.388;2023-04-07T11:12:05;95450.91;;;13.40;43.75
19590;BME280;12231;42.782;23.388;2023-04-07T11:14:31;95461.03;;;12.35;44.11
19590;BME280;12231;42.782;23.388;2023-04-07T11:16:58;95451.47;;;12.73;44.12
19590;BME280;12231;42.782;23.388;2023-04-07T11:19:23;95451.09;;;12.90;44.57
19590;BME280;12231;42.782;23.388;2023-04-07T11:21:49;95456.63;;;13.09;44.31
19590;BME280;12231;42.782;23.388;2023-04-07T11:24:34;95450.03;;;13.29;43.26
19590;BME280;12231;42.782;23.388;2023-04-07T11:27:02;95458.69;;;12.32;43.57
19590;BME280;12231;42.782;23.388;2023-04-07T11:29:30;95463.13;;;12.79;44.04
19590;BME280;12231;42.782;23.388;2023-04-07T11:32:00;95453.97;;;12.62;44.31
19590;BME280;12231;42.782;23.388;2023-04-07T11:34:34;95462.09;;;12.81;43.77
19590;BME280;12231;42.782;23.388;2023-04-07T11:37:19;95451.88;;;12.67;43.86
19590;BME280;12231;42.782;23.388;2023-04-07T11:39:51;95461.59;;;12.27;45.74
19590;BME280;12231;42.782;23.388;2023-04-07T11:42:30;95467.06;;;12.84;44.43
19590;BME280;12231;42.782;23.388;2023-04-07T11:44:56;95455.03;;;12.83;44.59
19590;BME280;12231;42.782;23.388;2023-04-07T11:47:33;95453.50;;;12.07;45.81
19590;BME280;12231;42.782;23.388;2023-04-07T11:49:58;95456.34;;;13.01;44.91
19590;BME280;12231;42.782;23.388;2023-04-07T11:52:24;95449.16;;;13.87;43.70
19590;BME280;12231;42.782;23.388;2023-04-07T11:54:50;95451.47;;;14.24;42.30
19590;BME280;12231;42.782;23.388;2023-04-07T11:57:27;95456.13;;;13.97;42.20
19590;BME280;12231;42.782;23.388;2023-04-07T12:00:06;95447.06;;;14.03;42.67
19590;BME280;12231;42.782;23.388;2023-04-07T12:02:33;95443.09;;;14.21;41.85
19590;BME280;12231;42.782;23.388;2023-04-07T12:04:58;95452.41;;;13.66;43.60
19590;BME280;12231;42.782;23.388;2023-04-07T12:07:24;95443.63;;;13.80;41.83
19590;BME280;12231;42.782;23.388;2023-04-07T12:09:49;95459.44;;;13.30;43.23
19590;BME280;12231;42.782;23.388;2023-04-07T12:12:27;95450.13;;;13.51;43.46
19590;BME280;12231;42.782;23.388;2023-04-07T12:14:53;95443.09;;;13.64;42.92
19590;BME280;12231;42.782;23.388;2023-04-07T12:17:23;95445.91;;;14.07;41.35
19590;BME280;12231;42.782;23.388;2023-04-07T12:19:49;95454.38;;;13.63;41.13
19590;BME280;12231;42.782;23.388;2023-04-07T12:22:14;95459.66;;;13.50;42.01
19590;BME280;12231;42.782;23.388;2023-04-07T12:24:40;95447.44;;;13.63;42.80
19590;BME280;12231;42.782;23.388;2023-04-07T12:27:06;95437.13;;;13.86;43.46
19590;BME280;12231;42.782;23.388;2023-04-07T12:29:32;95458.28;;;12.74;43.88
19590;BME280;12231;42.782;23.388;2023-04-07T12:31:58;95460.72;;;12.52;45.08
19590;BME280;12231;42.782;23.388;2023-04-07T12:34:23;95454.50;;;12.55;45.32
19590;BME280;12231;42.782;23.388;2023-04-07T12:36:49;95459.72;;;11.92;47.31
19590;BME280;12231;42.782;23.388;2023-04-07T12:39:15;95462.06;;;12.45;45.00
19590;BME280;12231;42.782;23.388;2023-04-07T12:41:40;95450.53;;;12.98;43.95
19590;BME280;12231;42.782;23.388;2023-04-07T12:44:06;95452.56;;;12.82;43.95
19590;BME280;12231;42.782;23.388;2023-04-07T12:46:32;95456.94;;;12.81;44.54
19590;BME280;12231;42.782;23.388;2023-04-07T12:48:57;95452.97;;;13.01;44.11
19590;BME280;12231;42.782;23.388;2023-04-07T12:51:24;95448.50;;;13.26;43.47
19590;BME280;12231;42.782;23.388;2023-04-07T12:53:50;95454.91;;;12.97;44.60
19590;BME280;12231;42.782;23.388;2023-04-07T12:56:15;95447.94;;;12.98;43.66
19590;BME280;12231;42.782;23.388;2023-04-07T12:58:41;95444.41;;;13.11;43.29
19590;BME280;12231;42.782;23.388;2023-04-07T13:01:07;95445.19;;;12.65;44.19
19590;BME280;12231;42.782;23.388;2023-04-07T13:03:32;95451.13;;;12.29;45.03
19590;BME280;12231;42.782;23.388;2023-04-07T13:05:58;95457.31;;;12.52;45.29
19590;BME280;12231;42.782;23.388;2023-04-07T13:08:26;95454.50;;;12.55;44.72
19590;BME280;12231;42.782;23.388;2023-04-07T13:10:53;95458.25;;;12.38;45.83
19590;BME280;12231;42.782;23.388;2023-04-07T13:13:18;95456.31;;;12.29;45.93
19590;BME280;12231;42.782;23.388;2023-04-07T13:15:44;95461.47;;;11.91;46.57
19590;BME280;12231;42.782;23.388;2023-04-07T13:18:09;95461.91;;;11.98;46.49
19590;BME280;12231;42.782;23.388;2023-04-07T13:20:35;95450.53;;;11.88;46.87
19590;BME280;12231;42.782;23.388;2023-04-07T13:23:00;95457.44;;;11.48;47.38
19590;BME280;12231;42.782;23.388;2023-04-07T13:25:26;95458.38;;;11.47;47.22
19590;BME280;12231;42.782;23.388;2023-04-07T13:27:51;95451.94;;;11.67;46.10
19590;BME280;12231;42.782;23.388;2023-04-07T13:30:16;95462.34;;;11.53;47.59
19590;BME280;12231;42.782;23.388;2023-04-07T13:32:42;95456.94;;;11.43;46.39
19590;BME280;12231;42.782;23.388;2023-04-07T13:35:08;95455.72;;;11.61;47.78